Decoded Metar for UKLN (CHERNOVTSK in UKRAINE) (IATA:N/A) | Meteo·Mobile Aviation Weather
aviador You're here:

UKLN Decoded Metar

CHERNOVTSK in UKRAINE
Report Time2018-12-17 10:30:00
UTC Time2018-12-17 10:58:06
Flight Rules lifr LIFR
Wind120° at 12 kt
W.Decomp.*RWY 15: 9.9 kt HW 6.7 kt LCW
W.Rank120° ranks 6
Current wind is above 120° avg. (8.2)
Visibility3000 m
Phenomena:Mist
Clouds:Broken 004 Hf
Ceiling400 ft
Temp-3°C (ISA -16)
Dew Point-3°C (100% RH)
AAT-9.7°C
QNH1021 hPa
Density Alt-1,385 ft
Elevation827 ft
Report Wrong Elevation
Raw Report
UKLN 171030Z 12006MPS 3000 BR BKN004 BKN///CB M03/M03 Q1021
R15/790130 NOSIG=

Extra information for UKLN:More info

Metar Taf Metar & Taf Last 4 Metars F.Rules Stats Wind Profile Meteogram Temp Stats Airport Information Weather charts Add Link Nearby VenuesMetar ALERT Operation Metar Decoded Social comments